createdAt,value
2018-03-06T00:00:26.800Z,-0.13
2018-03-06T00:02:55.162Z,-0.23
2018-03-06T00:05:23.539Z,-0.18
2018-03-06T00:07:51.907Z,-0.25
2018-03-06T00:10:20.262Z,-0.31
2018-03-06T00:12:48.622Z,-0.33
2018-03-06T00:15:16.996Z,-0.44
2018-03-06T00:17:45.431Z,-0.50
2018-03-06T00:20:13.770Z,-0.61
2018-03-06T00:22:42.170Z,-0.54
2018-03-06T00:25:10.530Z,-0.46
2018-03-06T00:27:38.969Z,-0.46
2018-03-06T00:30:07.368Z,-0.53
2018-03-06T00:32:35.708Z,-0.45
2018-03-06T00:35:04.072Z,-0.51
2018-03-06T00:37:32.444Z,-0.54
2018-03-06T00:40:00.816Z,-0.40
2018-03-06T00:42:29.178Z,-0.34
2018-03-06T00:44:57.563Z,-0.45
2018-03-06T00:47:25.961Z,-0.34
2018-03-06T00:49:54.335Z,-0.21
2018-03-06T00:52:22.699Z,-0.23
2018-03-06T00:54:51.086Z,-0.35
2018-03-06T00:57:19.444Z,-0.33
2018-03-06T00:59:47.831Z,-0.60
2018-03-06T01:02:16.169Z,-0.52
2018-03-06T01:04:44.531Z,-0.66
2018-03-06T01:07:12.925Z,-0.68
2018-03-06T01:09:41.297Z,-0.72
2018-03-06T01:12:09.681Z,-0.67
2018-03-06T01:14:38.040Z,-0.66
2018-03-06T01:17:06.366Z,-0.72
2018-03-06T01:19:34.749Z,-0.54
2018-03-06T01:22:03.142Z,-0.50
2018-03-06T01:24:31.536Z,-0.45
2018-03-06T01:26:59.902Z,-0.43
2018-03-06T01:29:28.286Z,-0.44
2018-03-06T01:31:56.669Z,-0.35
2018-03-06T01:34:25.029Z,-0.35
2018-03-06T01:36:53.396Z,-0.36
2018-03-06T01:39:21.733Z,-0.29
2018-03-06T01:41:50.105Z,-0.31
2018-03-06T01:44:18.477Z,-0.34
2018-03-06T01:46:46.810Z,-0.35
2018-03-06T01:49:15.166Z,-0.29
2018-03-06T01:51:55.740Z,-0.27
2018-03-06T01:54:24.151Z,-0.29
2018-03-06T01:56:52.489Z,-0.26
2018-03-06T01:59:20.866Z,-0.25
2018-03-06T02:01:49.225Z,-0.33
2018-03-06T02:04:17.592Z,-0.35
2018-03-06T02:06:45.954Z,-0.29
2018-03-06T02:09:14.324Z,-0.34
2018-03-06T02:11:42.679Z,-0.32
2018-03-06T02:14:11.081Z,-0.25
2018-03-06T02:16:39.439Z,-0.27
2018-03-06T02:19:07.809Z,-0.35
2018-03-06T02:21:36.183Z,-0.22
2018-03-06T02:24:04.550Z,-0.31
2018-03-06T02:26:32.917Z,-0.29
2018-03-06T02:29:01.313Z,-0.31
2018-03-06T02:31:29.679Z,-0.35
2018-03-06T02:33:58.131Z,-0.25
2018-03-06T02:36:26.528Z,-0.27
2018-03-06T02:38:54.879Z,-0.31
2018-03-06T02:41:23.265Z,-0.31
2018-03-06T02:43:51.668Z,-0.39
2018-03-06T02:46:20.066Z,-0.33
2018-03-06T02:48:48.414Z,-0.27
2018-03-06T02:51:16.793Z,-0.23
2018-03-06T02:53:45.146Z,-0.26
2018-03-06T02:56:13.498Z,-0.29
2018-03-06T02:58:41.897Z,-0.32
2018-03-06T03:01:10.254Z,-0.32
2018-03-06T03:03:38.600Z,-0.26
2018-03-06T03:06:06.985Z,-0.19
2018-03-06T03:08:35.336Z,-0.26
2018-03-06T03:11:03.773Z,-0.29
2018-03-06T03:13:32.159Z,-0.29
2018-03-06T03:16:00.606Z,-0.32
2018-03-06T03:18:28.969Z,-0.32
2018-03-06T03:20:57.348Z,-0.30
2018-03-06T03:23:25.723Z,-0.32
2018-03-06T03:25:54.128Z,-0.26
2018-03-06T03:28:22.494Z,-0.26
2018-03-06T03:30:50.871Z,-0.22
2018-03-06T03:33:19.221Z,-0.25
2018-03-06T03:35:47.646Z,-0.22
2018-03-06T03:38:16.001Z,-0.22
2018-03-06T03:40:44.365Z,-0.32
2018-03-06T03:43:12.729Z,-0.28
2018-03-06T03:45:41.075Z,-0.27
2018-03-06T03:48:09.497Z,-0.28
2018-03-06T03:50:37.858Z,-0.26
2018-03-06T03:53:06.219Z,-0.29
2018-03-06T03:55:34.590Z,-0.31
2018-03-06T03:58:02.970Z,-0.23
2018-03-06T04:00:31.468Z,-0.24
2018-03-06T04:02:59.860Z,-0.24
2018-03-06T04:05:28.228Z,-0.20
2018-03-06T04:07:56.651Z,-0.16
2018-03-06T04:10:24.994Z,-0.16
2018-03-06T04:12:53.396Z,-0.12
2018-03-06T04:15:21.803Z,-0.10
2018-03-06T04:17:50.193Z,-0.14
2018-03-06T04:20:18.601Z,-0.15
2018-03-06T04:22:46.971Z,-0.22
2018-03-06T04:25:15.335Z,-0.22
2018-03-06T04:27:43.714Z,-0.24
2018-03-06T04:30:12.098Z,-0.22
2018-03-06T04:32:40.485Z,-0.11
2018-03-06T04:35:08.865Z,-0.10
2018-03-06T04:37:37.231Z,-0.10
2018-03-06T04:40:05.599Z,-0.10
2018-03-06T04:42:33.936Z,-0.05
2018-03-06T04:45:02.306Z,0.00
2018-03-06T04:47:30.651Z,-0.06
2018-03-06T04:49:59.026Z,-0.03
2018-03-06T04:52:27.390Z,-0.06
2018-03-06T04:54:55.724Z,-0.08
2018-03-06T04:57:24.119Z,-0.10
2018-03-06T04:59:52.585Z,-0.09
2018-03-06T05:02:20.924Z,-0.13
2018-03-06T05:04:49.302Z,-0.09
2018-03-06T05:07:17.694Z,-0.12
2018-03-06T05:09:46.074Z,-0.12
2018-03-06T05:12:14.438Z,-0.11
2018-03-06T05:14:42.799Z,-0.06
2018-03-06T05:17:11.163Z,-0.07
2018-03-06T05:19:39.498Z,-0.09
2018-03-06T05:22:07.891Z,0.00
2018-03-06T05:24:36.264Z,0.02
2018-03-06T05:27:04.625Z,-0.02
2018-03-06T05:29:33.055Z,-0.06
2018-03-06T05:32:01.421Z,-0.04
2018-03-06T05:34:29.779Z,-0.05
2018-03-06T05:36:58.140Z,-0.05
2018-03-06T05:39:26.466Z,-0.06
2018-03-06T05:41:54.834Z,-0.06
2018-03-06T05:44:23.201Z,0.03
2018-03-06T05:46:51.529Z,0.08
2018-03-06T05:49:19.918Z,0.03
2018-03-06T05:51:48.350Z,0.04
2018-03-06T05:54:16.757Z,0.04
2018-03-06T05:56:45.104Z,0.11
2018-03-06T05:59:13.456Z,0.12
2018-03-06T06:01:41.841Z,0.14
2018-03-06T06:04:10.194Z,0.17
2018-03-06T06:06:38.569Z,0.23
2018-03-06T06:09:06.929Z,0.20
2018-03-06T06:11:35.255Z,0.27
2018-03-06T06:14:03.621Z,0.28
2018-03-06T06:16:31.964Z,0.40
2018-03-06T06:19:00.299Z,0.34
2018-03-06T06:21:28.663Z,0.35
2018-03-06T06:23:57.024Z,0.32
2018-03-06T06:26:25.421Z,0.40
2018-03-06T06:28:53.779Z,0.49
2018-03-06T06:31:22.148Z,0.55
2018-03-06T06:33:50.869Z,0.54
2018-03-06T06:36:19.249Z,0.48
2018-03-06T06:38:47.590Z,0.54
2018-03-06T06:41:15.930Z,0.51
2018-03-06T06:43:44.285Z,0.50
2018-03-06T06:46:12.618Z,0.51
2018-03-06T06:48:40.954Z,0.48
2018-03-06T06:51:09.335Z,0.42
2018-03-06T06:53:37.681Z,0.49
2018-03-06T06:56:06.021Z,0.66
2018-03-06T06:58:34.347Z,0.59
2018-03-06T07:01:03.597Z,0.49
2018-03-06T07:03:31.965Z,0.61
2018-03-06T07:06:00.368Z,0.50
2018-03-06T07:08:28.712Z,0.56
2018-03-06T07:10:57.024Z,0.70
2018-03-06T07:13:25.372Z,0.82
2018-03-06T07:15:53.717Z,0.88
2018-03-06T07:18:22.074Z,0.89
2018-03-06T07:20:50.461Z,1.12
2018-03-06T07:23:18.822Z,1.30
2018-03-06T07:25:47.223Z,1.30
2018-03-06T07:28:15.563Z,1.46
2018-03-06T07:30:43.931Z,1.62
2018-03-06T07:33:12.317Z,1.75
2018-03-06T07:35:40.716Z,1.63
2018-03-06T07:38:09.072Z,1.60
2018-03-06T07:40:37.426Z,1.89
2018-03-06T07:43:05.771Z,2.23
2018-03-06T07:45:34.130Z,2.13
2018-03-06T07:48:02.493Z,2.41
2018-03-06T07:50:30.912Z,2.23
2018-03-06T07:52:59.278Z,2.13
2018-03-06T07:55:27.606Z,2.37
2018-03-06T07:57:55.984Z,2.29
2018-03-06T08:00:24.383Z,2.34
2018-03-06T08:02:52.764Z,2.34
2018-03-06T08:05:21.118Z,2.59
2018-03-06T08:07:49.429Z,2.69
2018-03-06T08:10:17.771Z,2.90
2018-03-06T08:12:46.161Z,2.76
2018-03-06T08:15:14.504Z,2.85
2018-03-06T08:17:42.972Z,2.95
2018-03-06T08:20:11.365Z,3.19
2018-03-06T08:22:39.687Z,2.95
2018-03-06T08:25:08.029Z,3.03
2018-03-06T08:27:36.356Z,3.11
2018-03-06T08:30:04.733Z,3.27
2018-03-06T08:32:33.067Z,3.14
2018-03-06T08:35:01.433Z,2.98
2018-03-06T08:37:29.803Z,3.10
2018-03-06T08:39:58.152Z,2.96
2018-03-06T08:42:26.626Z,3.10
2018-03-06T08:44:54.976Z,3.05
2018-03-06T08:47:23.325Z,3.05
2018-03-06T08:49:51.729Z,2.99
2018-03-06T08:52:20.089Z,3.26
2018-03-06T08:54:48.429Z,3.36
2018-03-06T08:57:16.790Z,3.25
2018-03-06T08:59:45.136Z,3.73
2018-03-06T09:02:13.478Z,3.50
2018-03-06T09:04:41.826Z,3.66
2018-03-06T09:07:10.204Z,4.21
2018-03-06T09:09:38.640Z,4.16
2018-03-06T09:12:06.992Z,4.92
2018-03-06T09:14:35.504Z,6.17
2018-03-06T09:17:04.033Z,7.52
2018-03-06T09:19:32.448Z,10.20
2018-03-06T09:22:00.885Z,11.11
2018-03-06T09:24:29.295Z,11.63
2018-03-06T09:26:57.717Z,11.61
2018-03-06T09:29:26.105Z,11.99
2018-03-06T09:31:54.453Z,10.69
2018-03-06T09:34:22.878Z,9.85
2018-03-06T09:36:51.225Z,9.74
2018-03-06T09:39:19.544Z,8.62
2018-03-06T09:41:47.901Z,8.49
2018-03-06T09:44:16.249Z,8.59
2018-03-06T09:46:44.579Z,9.43
2018-03-06T09:49:12.919Z,11.23
2018-03-06T09:51:41.277Z,13.17
2018-03-06T09:54:09.780Z,15.66
2018-03-06T09:56:38.192Z,11.76
2018-03-06T09:59:06.635Z,10.94
2018-03-06T10:01:35.030Z,10.76
2018-03-06T10:04:03.418Z,9.44
2018-03-06T10:06:31.855Z,10.15
2018-03-06T10:09:00.192Z,11.40
2018-03-06T10:11:28.597Z,12.19
2018-03-06T10:13:56.951Z,11.55
2018-03-06T10:16:25.328Z,10.81
2018-03-06T10:18:53.666Z,11.01
2018-03-06T10:21:22.080Z,11.65
2018-03-06T10:23:50.487Z,9.89
2018-03-06T10:26:18.947Z,9.68
2018-03-06T10:28:47.510Z,10.37
2018-03-06T10:31:15.847Z,9.37
2018-03-06T10:33:44.173Z,10.47
2018-03-06T10:36:12.522Z,11.65
2018-03-06T10:38:40.849Z,12.32
2018-03-06T10:41:09.233Z,12.64
2018-03-06T10:43:37.595Z,12.30
2018-03-06T10:46:05.935Z,10.61
2018-03-06T10:48:34.396Z,8.82
2018-03-06T10:51:02.820Z,9.29
2018-03-06T10:53:31.279Z,8.47
2018-03-06T10:55:59.741Z,9.50
2018-03-06T10:58:28.215Z,11.00
2018-03-06T11:00:56.648Z,10.87
2018-03-06T11:03:25.128Z,11.43
2018-03-06T11:05:53.523Z,9.63
2018-03-06T11:08:21.938Z,8.82
2018-03-06T11:10:50.315Z,8.97
2018-03-06T11:13:18.644Z,8.72
2018-03-06T11:15:47.059Z,9.61
2018-03-06T11:18:15.529Z,10.46
2018-03-06T11:20:44.012Z,9.46
2018-03-06T11:23:12.398Z,8.73
2018-03-06T11:25:40.790Z,9.81
2018-03-06T11:28:09.226Z,9.84
2018-03-06T11:30:37.624Z,10.07
2018-03-06T11:33:06.042Z,11.21
2018-03-06T11:35:34.390Z,10.93
2018-03-06T11:38:02.868Z,11.18
2018-03-06T11:40:31.264Z,10.58
2018-03-06T11:42:59.689Z,12.44
2018-03-06T11:45:28.021Z,12.74
2018-03-06T11:47:56.377Z,15.66
2018-03-06T11:50:24.786Z,13.87
2018-03-06T11:52:53.129Z,11.74
2018-03-06T11:55:21.511Z,9.66
2018-03-06T11:57:49.878Z,11.86
2018-03-06T12:00:18.352Z,14.95
2018-03-06T12:02:46.763Z,13.55
2018-03-06T12:05:15.105Z,14.58
2018-03-06T12:07:43.464Z,15.26
2018-03-06T12:10:11.808Z,14.22
2018-03-06T12:12:40.150Z,15.78
2018-03-06T12:15:08.600Z,14.35
2018-03-06T12:17:36.934Z,15.00
2018-03-06T12:20:05.363Z,12.97
2018-03-06T12:22:33.682Z,15.79
2018-03-06T12:25:02.207Z,15.09
2018-03-06T12:27:30.560Z,13.81
2018-03-06T12:29:58.885Z,14.82
2018-03-06T12:32:27.205Z,15.59
2018-03-06T12:34:55.539Z,14.72
2018-03-06T12:37:23.865Z,12.61
2018-03-06T12:39:52.182Z,12.02
2018-03-06T12:42:20.529Z,13.82
2018-03-06T12:44:48.897Z,13.63
2018-03-06T12:47:17.221Z,14.27
2018-03-06T12:49:46.270Z,13.31
2018-03-06T12:52:14.662Z,13.94
2018-03-06T12:54:43.091Z,13.24
2018-03-06T12:57:11.403Z,13.88
2018-03-06T12:59:39.749Z,12.36
2018-03-06T13:02:08.120Z,11.47
2018-03-06T13:04:36.468Z,10.60
2018-03-06T13:07:04.800Z,8.45
2018-03-06T13:09:33.139Z,8.85
2018-03-06T13:12:01.469Z,8.19
2018-03-06T13:14:29.828Z,8.10
2018-03-06T13:16:58.152Z,9.60
2018-03-06T13:19:26.480Z,8.64
2018-03-06T13:21:54.851Z,10.28
2018-03-06T13:24:23.207Z,9.69
2018-03-06T13:26:51.564Z,8.68
2018-03-06T13:29:19.932Z,8.62
2018-03-06T13:31:48.270Z,7.58
2018-03-06T13:34:16.622Z,7.79
2018-03-06T13:36:44.958Z,7.59
2018-03-06T13:39:13.408Z,7.17
2018-03-06T13:41:41.744Z,6.52
2018-03-06T13:44:10.078Z,6.66
2018-03-06T13:46:38.415Z,6.36
2018-03-06T13:49:06.744Z,7.01
2018-03-06T13:51:35.223Z,7.23
2018-03-06T13:54:03.609Z,7.72
2018-03-06T13:56:31.973Z,7.61
2018-03-06T13:59:00.343Z,7.83
2018-03-06T14:01:28.706Z,7.88
2018-03-06T14:03:57.060Z,7.24
2018-03-06T14:06:25.461Z,6.64
2018-03-06T14:08:53.832Z,6.60
2018-03-06T14:11:22.193Z,6.15
2018-03-06T14:13:50.560Z,6.57
2018-03-06T14:16:18.926Z,6.73
2018-03-06T14:18:47.328Z,7.00
2018-03-06T14:21:15.689Z,6.10
2018-03-06T14:23:44.081Z,6.44
2018-03-06T14:26:12.480Z,6.60
2018-03-06T14:28:40.801Z,6.33
2018-03-06T14:31:09.142Z,5.76
2018-03-06T14:33:37.516Z,5.13
2018-03-06T14:36:05.892Z,5.61
2018-03-06T14:38:34.238Z,4.98
2018-03-06T14:41:02.626Z,5.12
2018-03-06T14:43:30.990Z,5.84
2018-03-06T14:45:59.431Z,5.85
2018-03-06T14:48:27.763Z,5.77
2018-03-06T14:50:56.129Z,6.05
2018-03-06T14:53:24.466Z,6.02
2018-03-06T14:55:52.859Z,6.22
2018-03-06T14:58:21.231Z,6.04
2018-03-06T15:00:49.568Z,5.68
2018-03-06T15:03:17.931Z,5.48
2018-03-06T15:05:46.284Z,5.49
2018-03-06T15:08:14.626Z,5.26
2018-03-06T15:10:42.971Z,5.24
2018-03-06T15:13:11.338Z,5.28
2018-03-06T15:15:39.658Z,5.21
2018-03-06T15:18:08.048Z,5.13
2018-03-06T15:20:36.411Z,5.30
2018-03-06T15:23:04.755Z,5.19
2018-03-06T15:25:33.098Z,4.91
2018-03-06T15:28:01.433Z,5.15
2018-03-06T15:30:29.795Z,5.04
2018-03-06T15:32:58.159Z,4.92
2018-03-06T15:35:26.515Z,5.00
2018-03-06T15:37:54.877Z,5.09
2018-03-06T15:40:23.202Z,4.86
2018-03-06T15:42:51.591Z,4.70
2018-03-06T15:45:19.933Z,4.68
2018-03-06T15:47:48.274Z,4.46
2018-03-06T15:50:16.612Z,4.47
2018-03-06T15:52:44.938Z,4.44
2018-03-06T15:55:13.285Z,4.24
2018-03-06T15:57:41.659Z,4.14
2018-03-06T16:00:10.013Z,4.17
2018-03-06T16:02:38.376Z,4.02
2018-03-06T16:05:06.700Z,3.98
2018-03-06T16:07:35.065Z,3.96
2018-03-06T16:10:03.483Z,3.70
2018-03-06T16:12:31.842Z,3.55
2018-03-06T16:15:00.258Z,3.39
2018-03-06T16:17:28.591Z,3.31
2018-03-06T16:19:56.973Z,3.20
2018-03-06T16:22:25.366Z,3.05
2018-03-06T16:24:53.762Z,3.05
2018-03-06T16:27:22.107Z,2.91
2018-03-06T16:29:50.492Z,2.82
2018-03-06T16:32:18.880Z,2.73
2018-03-06T16:34:47.220Z,2.65
2018-03-06T16:37:15.606Z,2.61
2018-03-06T16:39:43.965Z,2.58
2018-03-06T16:42:12.308Z,2.51
2018-03-06T16:44:40.673Z,2.41
2018-03-06T16:47:09.169Z,2.36
2018-03-06T16:49:37.546Z,2.34
2018-03-06T16:52:05.881Z,2.30
2018-03-06T16:54:34.246Z,2.21
2018-03-06T16:57:02.578Z,2.15
2018-03-06T16:59:30.959Z,2.11
2018-03-06T17:01:59.351Z,2.08
2018-03-06T17:04:27.673Z,2.02
2018-03-06T17:06:55.987Z,2.02
2018-03-06T17:09:24.369Z,2.01
2018-03-06T17:11:52.701Z,2.00
2018-03-06T17:14:21.107Z,1.88
2018-03-06T17:16:49.546Z,1.83
2018-03-06T17:19:17.905Z,1.76
2018-03-06T17:21:46.323Z,1.87
2018-03-06T17:24:14.677Z,2.00
2018-03-06T17:26:43.034Z,2.12
2018-03-06T17:29:11.450Z,2.11
2018-03-06T17:31:39.825Z,2.22
2018-03-06T17:34:08.183Z,2.28
2018-03-06T17:36:36.620Z,2.18
2018-03-06T17:39:04.996Z,2.08
2018-03-06T17:41:33.369Z,2.01
2018-03-06T17:44:01.730Z,1.99
2018-03-06T17:46:31.544Z,1.92
2018-03-06T17:48:59.974Z,1.94
2018-03-06T17:51:28.325Z,1.95
2018-03-06T17:53:56.692Z,2.00
2018-03-06T17:56:25.073Z,2.04
2018-03-06T17:58:53.469Z,2.11
2018-03-06T18:01:21.856Z,2.19
2018-03-06T18:03:50.267Z,2.18
2018-03-06T18:06:18.599Z,2.17
2018-03-06T18:08:47.024Z,2.18
2018-03-06T18:11:15.389Z,2.19
2018-03-06T18:13:43.738Z,2.29
2018-03-06T18:16:12.163Z,2.24
2018-03-06T18:18:40.512Z,2.27
2018-03-06T18:21:08.922Z,2.31
2018-03-06T18:23:37.327Z,2.27
2018-03-06T18:26:05.721Z,2.29
2018-03-06T18:28:34.044Z,2.34
2018-03-06T18:31:02.474Z,2.37
2018-03-06T18:33:30.838Z,2.39
2018-03-06T18:35:59.266Z,2.44
2018-03-06T18:38:27.617Z,2.41
2018-03-06T18:40:55.967Z,2.40
2018-03-06T18:43:24.380Z,2.41
2018-03-06T18:45:52.766Z,2.42
2018-03-06T18:48:21.090Z,2.40
2018-03-06T18:51:01.647Z,2.37
2018-03-06T18:53:30.027Z,2.35
2018-03-06T18:55:58.455Z,2.37
2018-03-06T18:58:26.885Z,2.37
2018-03-06T19:01:07.362Z,2.39
2018-03-06T19:03:47.810Z,2.38
2018-03-06T19:06:23.332Z,2.40
2018-03-06T19:08:51.712Z,2.43
2018-03-06T19:11:20.065Z,2.44
2018-03-06T19:13:48.419Z,2.46
2018-03-06T19:16:16.742Z,2.39
2018-03-06T19:18:45.155Z,2.43
2018-03-06T19:21:13.697Z,2.45
2018-03-06T19:23:42.095Z,2.50
2018-03-06T19:26:10.530Z,2.53
2018-03-06T19:28:38.893Z,2.49
2018-03-06T19:31:07.249Z,2.54
2018-03-06T19:33:35.769Z,2.56
2018-03-06T19:36:04.194Z,2.54
2018-03-06T19:38:32.512Z,2.57
2018-03-06T19:41:01.122Z,2.60
2018-03-06T19:43:29.803Z,2.63
2018-03-06T19:45:58.551Z,2.66
2018-03-06T19:48:27.204Z,2.64
2018-03-06T19:50:55.867Z,2.67
2018-03-06T19:53:24.640Z,2.71
2018-03-06T19:55:53.027Z,2.74
2018-03-06T19:58:21.455Z,2.72
2018-03-06T20:00:49.819Z,2.70
2018-03-06T20:03:18.187Z,2.71
2018-03-06T20:05:46.846Z,2.73
2018-03-06T20:08:15.565Z,2.69
2018-03-06T20:10:44.215Z,2.65
2018-03-06T20:13:12.602Z,2.70
2018-03-06T20:15:40.959Z,2.67
2018-03-06T20:18:09.868Z,2.69
2018-03-06T20:20:38.289Z,2.74
2018-03-06T20:23:06.874Z,2.74
2018-03-06T20:25:41.504Z,2.72
2018-03-06T20:28:09.884Z,2.76
2018-03-06T20:30:44.398Z,2.76
2018-03-06T20:33:12.774Z,2.76
2018-03-06T20:35:41.369Z,2.63
2018-03-06T20:38:15.861Z,2.69
2018-03-06T20:40:44.213Z,2.68
2018-03-06T20:43:12.529Z,2.68
2018-03-06T20:45:46.824Z,2.68
2018-03-06T20:48:15.234Z,2.63
2018-03-06T20:50:43.667Z,2.62
2018-03-06T20:53:17.998Z,2.58
2018-03-06T20:55:46.381Z,2.60
2018-03-06T20:58:14.784Z,2.65
2018-03-06T21:00:43.170Z,2.66
2018-03-06T21:03:11.517Z,2.60
2018-03-06T21:05:40.383Z,2.62
2018-03-06T21:08:08.778Z,2.59
2018-03-06T21:10:37.160Z,2.55
2018-03-06T21:13:05.510Z,2.54
2018-03-06T21:15:33.850Z,2.56
2018-03-06T21:18:02.203Z,2.57
2018-03-06T21:20:30.542Z,2.56
2018-03-06T21:22:58.884Z,2.53
2018-03-06T21:25:27.227Z,2.52
2018-03-06T21:27:55.581Z,2.52
2018-03-06T21:30:23.946Z,2.46
2018-03-06T21:32:52.270Z,2.49
2018-03-06T21:35:20.670Z,2.47
2018-03-06T21:37:49.013Z,2.46
2018-03-06T21:40:17.382Z,2.46
2018-03-06T21:42:45.726Z,2.44
2018-03-06T21:45:14.060Z,2.47
2018-03-06T21:47:42.407Z,2.49
2018-03-06T21:50:10.850Z,2.44
2018-03-06T21:52:39.182Z,2.43
2018-03-06T21:55:07.596Z,2.45
2018-03-06T21:57:36.085Z,2.45
2018-03-06T22:00:04.478Z,2.41
2018-03-06T22:02:32.864Z,2.39
2018-03-06T22:05:01.238Z,2.43
2018-03-06T22:07:29.583Z,2.43
2018-03-06T22:09:57.960Z,2.39
2018-03-06T22:12:26.365Z,2.38
2018-03-06T22:14:54.751Z,2.40
2018-03-06T22:17:23.149Z,2.44
2018-03-06T22:19:51.558Z,2.39
2018-03-06T22:22:19.928Z,2.47
2018-03-06T22:24:48.265Z,2.41
2018-03-06T22:27:16.673Z,2.38
2018-03-06T22:29:45.139Z,2.36
2018-03-06T22:32:13.471Z,2.37
2018-03-06T22:34:41.828Z,2.39
2018-03-06T22:37:10.329Z,2.43
2018-03-06T22:39:38.732Z,2.42
2018-03-06T22:42:07.098Z,2.38
2018-03-06T22:44:35.518Z,2.33
2018-03-06T22:47:03.932Z,2.33
2018-03-06T22:49:32.314Z,2.32
2018-03-06T22:52:00.694Z,2.38
2018-03-06T22:54:29.089Z,2.34
2018-03-06T22:56:57.459Z,2.36
2018-03-06T22:59:25.959Z,2.36
2018-03-06T23:01:54.392Z,2.30
2018-03-06T23:04:22.720Z,2.29
2018-03-06T23:06:51.085Z,2.34
2018-03-06T23:09:19.454Z,2.30
2018-03-06T23:11:47.789Z,2.30
2018-03-06T23:14:16.166Z,2.34
2018-03-06T23:16:44.540Z,2.31
2018-03-06T23:19:12.914Z,2.33
2018-03-06T23:21:41.323Z,2.37
2018-03-06T23:24:09.713Z,2.27
2018-03-06T23:26:38.068Z,2.29
2018-03-06T23:29:06.605Z,2.32
2018-03-06T23:31:35.088Z,2.32
2018-03-06T23:34:03.448Z,2.26
2018-03-06T23:36:31.791Z,2.28
2018-03-06T23:39:00.129Z,2.18
2018-03-06T23:41:28.512Z,2.15
2018-03-06T23:43:56.870Z,2.20
2018-03-06T23:46:25.205Z,2.23
2018-03-06T23:48:53.606Z,2.16
2018-03-06T23:51:21.957Z,2.12
2018-03-06T23:53:50.317Z,2.09
2018-03-06T23:56:18.689Z,2.15
2018-03-06T23:58:47.014Z,2.16
